Meteo Giornale » Osservazioni meteo Italia » Pratica Di Mare

ore: 23:55 - Osservazioni Meteo Pratica Di Mare
Lat. 41° 39' N Lon. 12° 27' E Alt. 6 metri s.l.m.

sereno Europe/Rome

16 °C

Sereno

Temp. 24 Ore

9 °C

22 °C

Nord

7.4 Km/h

Dew point 14 °C

Umidità 87 %

Visibilità  10 Km

Il sole sorge alle ore 06:55

Il sole tramonta alle ore 19:10

Data e Ora Cielo e Fenomeni T °C DP °C Um. % Pres. hPa Vis. km Vento km/h
Ieri h: 23:55 sereno Sereno 16 14 87 1020 10 N 7.4
Ieri h: 22:55 sereno Sereno 16 14 87 1020 10 N 7.4
Ieri h: 21:55 sereno Sereno 16 14 87 1018 10 N 9.3
Ieri h: 20:55 sereno Sereno 17 14 82 1019 10 N 5.5
Ieri h: 19:55 poco_nuvoloso Poco Nuvoloso 18 14 77 1019 10 N 5.5
Ieri h: 18:55 poco_nuvoloso Poco Nuvoloso 20 12 59 1019 10 O 11.1
Ieri h: 17:55 poco_nuvoloso Poco Nuvoloso 21 11 52 1019 10 O 16.7
Ieri h: 16:55 poco_nuvoloso Poco Nuvoloso 22 12 53 1019 10 O 20.3
Ieri h: 15:55 poco_nuvoloso Poco Nuvoloso 22 13 56 1019 10 O 20.3
Ieri h: 14:55 poco_nuvoloso Poco Nuvoloso 22 13 56 1020 10 O 18.5
Ieri h: 13:55 poco_nuvoloso Poco Nuvoloso 22 12 53 1019 10 O 18.5
Ieri h: 12:55 poco_nuvoloso Poco Nuvoloso 22 9 43 1020 10 O 16.7
Ieri h: 11:55 poco_nuvoloso Poco Nuvoloso 22 6 35 1019 10 O 16.7
Ieri h: 10:55 sereno Sereno 22 2 26 1019 10 N 5.5
Ieri h: 09:55 sereno Sereno 20 5 37 1019 10 N 5.5
Ieri h: 08:55 sereno Sereno 16 7 55 1018 10 N/NE 11.1
Ieri h: 07:55 sereno Sereno 14 7 62 1018 10 N/NE 13
Ieri h: 06:55 sereno Sereno 12 6 66 1018 10 N/NE 11.1
Ieri h: 05:55 sereno Sereno 13 4 54 1018 10 N/NE 13
Ieri h: 04:55 sereno Sereno 13 6 62 1018 10 N/NE 13
Ieri h: 03:55 sereno Sereno 14 6 58 1018 10 N/NE 13
Ieri h: 02:55 sereno Sereno 13 6 62 1018 10 N 9.3
Ieri h: 01:55 sereno Sereno 9 -3 42 1018 10 N 11.1